createdAt,value
2022-11-05T00:02:00.092Z,52.17
2022-11-05T00:04:46.423Z,50.40
2022-11-05T00:07:35.752Z,53.37
2022-11-05T00:10:24.082Z,52.37
2022-11-05T00:13:12.102Z,49.73
2022-11-05T00:15:58.114Z,54.80
2022-11-05T00:18:25.083Z,53.20
2022-11-05T00:20:52.191Z,50.10
2022-11-05T00:23:37.713Z,53.73
2022-11-05T00:26:11.418Z,49.90
2022-11-05T00:28:44.001Z,56.03
2022-11-05T00:31:14.037Z,49.13
2022-11-05T00:33:42.684Z,53.33
2022-11-05T00:36:10.870Z,56.00
2022-11-05T00:38:37.813Z,59.80
2022-11-05T00:41:05.188Z,60.67
2022-11-05T00:43:50.600Z,63.27
2022-11-05T00:46:17.725Z,56.67
2022-11-05T00:49:03.149Z,58.33
2022-11-05T00:51:30.371Z,53.70
2022-11-05T00:53:57.182Z,57.30
2022-11-05T00:56:24.453Z,55.40
2022-11-05T00:58:51.371Z,55.13
2022-11-05T01:01:18.609Z,59.80
2022-11-05T01:03:51.294Z,55.57
2022-11-05T01:06:18.937Z,57.53
2022-11-05T01:08:46.681Z,54.43
2022-11-05T01:11:35.216Z,55.50
2022-11-05T01:14:07.853Z,50.77
2022-11-05T01:16:36.286Z,53.77
2022-11-05T01:19:04.611Z,51.40
2022-11-05T01:21:31.959Z,45.53
2022-11-05T01:23:58.788Z,49.83
2022-11-05T01:26:27.128Z,59.03
2022-11-05T01:28:55.292Z,47.07
2022-11-05T01:31:23.790Z,54.67
2022-11-05T01:33:50.949Z,48.70
2022-11-05T01:36:18.428Z,45.70
2022-11-05T01:38:45.294Z,50.70
2022-11-05T01:41:12.540Z,45.87
2022-11-05T01:43:51.807Z,51.17
2022-11-05T01:46:42.936Z,49.73
2022-11-05T01:49:12.601Z,48.27
2022-11-05T01:51:41.019Z,44.67
2022-11-05T01:54:12.858Z,46.33
2022-11-05T01:56:50.318Z,43.00
2022-11-05T01:59:28.201Z,45.27
2022-11-05T02:01:58.005Z,41.93
2022-11-05T02:04:35.643Z,49.37
2022-11-05T02:07:05.940Z,42.77
2022-11-05T02:09:53.455Z,49.57
2022-11-05T02:12:21.605Z,45.87
2022-11-05T02:14:48.562Z,45.10
2022-11-05T02:17:20.874Z,49.03
2022-11-05T02:20:23.604Z,44.60
2022-11-05T02:23:12.019Z,44.13
2022-11-05T02:25:57.661Z,45.67
2022-11-05T02:28:49.690Z,48.87
2022-11-05T02:31:32.444Z,44.97
2022-11-05T02:34:04.748Z,45.40
2022-11-05T02:36:36.760Z,42.40
2022-11-05T02:39:24.317Z,44.37
2022-11-05T02:42:19.092Z,41.77
2022-11-05T02:45:18.143Z,41.20
2022-11-05T02:47:52.025Z,43.93
2022-11-05T02:50:42.304Z,44.63
2022-11-05T02:53:21.687Z,41.77
2022-11-05T02:56:10.468Z,48.60
2022-11-05T02:58:37.356Z,48.93
2022-11-05T03:01:07.077Z,41.37
2022-11-05T03:03:40.026Z,43.97
2022-11-05T03:06:28.156Z,49.07
2022-11-05T03:09:16.526Z,43.87
2022-11-05T03:12:18.853Z,42.67
2022-11-05T03:14:57.821Z,45.73
2022-11-05T03:17:33.810Z,48.97
2022-11-05T03:20:09.678Z,44.00
2022-11-05T03:22:42.151Z,42.80
2022-11-05T03:25:14.939Z,39.67
2022-11-05T03:27:47.410Z,40.10
2022-11-05T03:30:16.380Z,47.50
2022-11-05T03:32:48.967Z,43.03
2022-11-05T03:35:26.585Z,41.00
2022-11-05T03:37:58.247Z,48.07
2022-11-05T03:40:26.382Z,42.17
2022-11-05T03:42:57.751Z,41.57
2022-11-05T03:45:34.591Z,43.93
2022-11-05T03:48:03.763Z,39.33
2022-11-05T03:50:41.231Z,44.63
2022-11-05T03:53:24.069Z,45.53
2022-11-05T03:56:10.998Z,44.00
2022-11-05T03:58:43.008Z,47.07
2022-11-05T04:01:10.251Z,46.63
2022-11-05T04:03:37.315Z,43.90
2022-11-05T04:06:24.924Z,44.93
2022-11-05T04:09:10.543Z,44.80
2022-11-05T04:11:55.978Z,45.67
2022-11-05T04:14:23.153Z,48.70
2022-11-05T04:17:09.756Z,50.50
2022-11-05T04:20:03.095Z,49.70
2022-11-05T04:22:50.998Z,46.73
2022-11-05T04:25:19.050Z,49.20
2022-11-05T04:27:46.530Z,52.47
2022-11-05T04:30:18.622Z,55.97
2022-11-05T04:33:01.869Z,52.97
2022-11-05T04:35:32.161Z,49.23
2022-11-05T04:37:59.482Z,47.57
2022-11-05T04:40:26.929Z,52.97
2022-11-05T04:42:55.539Z,56.27
2022-11-05T04:45:27.690Z,57.37
2022-11-05T04:47:54.878Z,56.53
2022-11-05T04:50:22.246Z,63.07
2022-11-05T04:52:49.169Z,57.43
2022-11-05T04:55:16.537Z,52.30
2022-11-05T04:57:43.626Z,56.93
2022-11-05T05:00:11.384Z,53.50
2022-11-05T05:02:38.307Z,67.03
2022-11-05T05:05:06.408Z,59.27
2022-11-05T05:07:33.986Z,65.73
2022-11-05T05:10:02.259Z,67.00
2022-11-05T05:12:29.703Z,70.10
2022-11-05T05:14:56.919Z,68.77
2022-11-05T05:17:23.841Z,64.77
2022-11-05T05:20:09.740Z,60.37
2022-11-05T05:22:36.740Z,72.23
2022-11-05T05:25:04.527Z,73.87
2022-11-05T05:27:31.735Z,62.17
2022-11-05T05:29:59.549Z,64.83
2022-11-05T05:32:26.817Z,65.13
2022-11-05T05:34:54.077Z,64.47
2022-11-05T05:37:21.144Z,62.27
2022-11-05T05:39:48.619Z,61.83
2022-11-05T05:42:15.736Z,64.90
2022-11-05T05:44:42.934Z,58.60
2022-11-05T05:47:09.930Z,60.70
2022-11-05T05:49:37.074Z,55.37
2022-11-05T05:52:04.179Z,59.43
2022-11-05T05:54:34.212Z,60.33
2022-11-05T05:57:03.132Z,59.00
2022-11-05T05:59:30.321Z,61.67
2022-11-05T06:01:57.490Z,68.23
2022-11-05T06:04:24.901Z,67.23
2022-11-05T06:06:51.837Z,78.53
2022-11-05T06:09:18.939Z,79.47
2022-11-05T06:11:45.889Z,82.00
2022-11-05T06:14:14.118Z,84.37
2022-11-05T06:16:41.036Z,93.17
2022-11-05T06:19:08.262Z,95.97
2022-11-05T06:21:35.632Z,92.60
2022-11-05T06:24:03.288Z,82.17
2022-11-05T06:26:30.502Z,80.87
2022-11-05T06:28:57.693Z,75.00
2022-11-05T06:31:24.964Z,73.97
2022-11-05T06:33:52.114Z,74.33
2022-11-05T06:36:20.302Z,63.57
2022-11-05T06:38:47.567Z,62.27
2022-11-05T06:41:14.550Z,63.83
2022-11-05T06:43:42.246Z,62.07
2022-11-05T06:46:10.605Z,66.13
2022-11-05T06:48:38.587Z,60.33
2022-11-05T06:51:07.547Z,52.93
2022-11-05T06:53:35.472Z,51.67
2022-11-05T06:56:07.032Z,48.03
2022-11-05T06:58:34.457Z,46.03
2022-11-05T07:01:09.374Z,48.97
2022-11-05T07:03:38.150Z,52.23
2022-11-05T07:06:06.962Z,47.40
2022-11-05T07:08:35.830Z,43.97
2022-11-05T07:11:03.040Z,46.20
2022-11-05T07:13:30.264Z,53.90
2022-11-05T07:15:57.236Z,56.00
2022-11-05T07:18:24.640Z,62.63
2022-11-05T07:20:51.622Z,56.80
2022-11-05T07:23:18.749Z,57.30
2022-11-05T07:25:45.662Z,57.57
2022-11-05T07:28:14.626Z,59.40
2022-11-05T07:30:41.639Z,57.70
2022-11-05T07:33:09.573Z,60.03
2022-11-05T07:35:36.685Z,60.13
2022-11-05T07:38:04.305Z,56.97
2022-11-05T07:40:31.420Z,58.60
2022-11-05T07:43:01.092Z,61.27
2022-11-05T07:45:30.039Z,59.30
2022-11-05T07:48:02.451Z,57.73
2022-11-05T07:50:32.666Z,59.23
2022-11-05T07:53:01.724Z,57.77
2022-11-05T07:55:28.997Z,63.33
2022-11-05T07:57:56.195Z,52.70
2022-11-05T08:00:25.117Z,53.20
2022-11-05T08:03:09.301Z,50.53
2022-11-05T08:05:39.492Z,54.60
2022-11-05T08:08:08.741Z,50.93
2022-11-05T08:10:36.728Z,51.97
2022-11-05T08:13:05.528Z,51.40
2022-11-05T08:15:33.036Z,46.47
2022-11-05T08:18:08.744Z,52.57
2022-11-05T08:20:36.321Z,48.30
2022-11-05T08:23:03.615Z,45.37
2022-11-05T08:25:31.709Z,40.67
2022-11-05T08:28:00.939Z,35.40
2022-11-05T08:30:28.786Z,37.40
2022-11-05T08:33:05.299Z,34.37
2022-11-05T08:35:35.059Z,31.20
2022-11-05T08:38:03.950Z,31.37
2022-11-05T08:40:32.804Z,31.70
2022-11-05T08:43:02.747Z,28.67
2022-11-05T08:45:30.147Z,25.27
2022-11-05T08:48:01.328Z,24.67
2022-11-05T08:50:28.593Z,25.83
2022-11-05T08:52:56.306Z,24.40
2022-11-05T08:55:23.619Z,23.97
2022-11-05T08:58:05.013Z,25.80
2022-11-05T09:00:34.235Z,22.73
2022-11-05T09:03:03.005Z,18.37
2022-11-05T09:05:31.840Z,20.53
2022-11-05T09:08:01.280Z,17.23
2022-11-05T09:10:28.699Z,16.60
2022-11-05T09:12:56.093Z,21.00
2022-11-05T09:15:23.553Z,18.63
2022-11-05T09:17:51.227Z,18.70
2022-11-05T09:20:18.413Z,16.33
2022-11-05T09:22:46.613Z,17.80
2022-11-05T09:25:15.309Z,21.93
2022-11-05T09:27:43.170Z,19.83
2022-11-05T09:30:12.043Z,24.50
2022-11-05T09:32:39.306Z,19.77
2022-11-05T09:35:06.631Z,17.50
2022-11-05T09:37:33.881Z,14.57
2022-11-05T09:40:00.776Z,16.83
2022-11-05T09:42:42.191Z,13.90
2022-11-05T09:45:17.552Z,14.23
2022-11-05T09:47:50.356Z,14.50
2022-11-05T09:50:33.750Z,13.97
2022-11-05T09:53:02.006Z,15.73
2022-11-05T09:55:38.122Z,20.03
2022-11-05T09:58:32.820Z,18.20
2022-11-05T10:01:00.477Z,15.53
2022-11-05T10:03:30.423Z,12.97
2022-11-05T10:06:13.162Z,14.80
2022-11-05T10:08:44.241Z,16.90
2022-11-05T10:11:18.318Z,16.07
2022-11-05T10:13:56.821Z,16.80
2022-11-05T10:16:31.748Z,13.73
2022-11-05T10:19:26.732Z,12.73
2022-11-05T10:22:23.041Z,23.37
2022-11-05T10:24:52.063Z,17.33
2022-11-05T10:27:32.595Z,19.87
2022-11-05T10:30:00.285Z,19.17
2022-11-05T10:32:37.459Z,17.93
2022-11-05T10:35:08.176Z,21.07
2022-11-05T10:37:40.708Z,15.57
2022-11-05T10:40:29.463Z,14.47
2022-11-05T10:43:05.297Z,13.03
2022-11-05T10:45:50.391Z,11.33
2022-11-05T10:48:43.880Z,13.37
2022-11-05T10:51:12.762Z,10.13
2022-11-05T10:53:43.699Z,10.33
2022-11-05T10:56:31.146Z,8.57
2022-11-05T10:59:00.064Z,8.20
2022-11-05T11:01:28.548Z,9.60
2022-11-05T11:04:20.428Z,6.50
2022-11-05T11:06:53.562Z,6.23
2022-11-05T11:09:29.117Z,7.70
2022-11-05T11:12:04.220Z,12.50
2022-11-05T11:14:31.810Z,14.13
2022-11-05T11:17:18.352Z,19.40
2022-11-05T11:19:45.309Z,15.00
2022-11-05T11:22:16.837Z,15.50
2022-11-05T11:24:50.027Z,19.03
2022-11-05T11:27:24.856Z,19.07
2022-11-05T11:29:58.528Z,10.73
2022-11-05T11:32:32.952Z,11.07
2022-11-05T11:35:01.178Z,11.20
2022-11-05T11:37:41.829Z,14.03
2022-11-05T11:40:19.396Z,12.23
2022-11-05T11:42:50.968Z,14.27
2022-11-05T11:45:29.640Z,16.40
2022-11-05T11:47:57.926Z,14.87
2022-11-05T11:50:34.057Z,11.77
2022-11-05T11:53:20.743Z,16.53
2022-11-05T11:56:00.021Z,14.30
2022-11-05T11:58:39.954Z,17.60
2022-11-05T12:01:09.674Z,17.20
2022-11-05T12:03:49.451Z,17.70
2022-11-05T12:06:28.788Z,17.93
2022-11-05T12:09:15.831Z,21.93
2022-11-05T12:11:50.839Z,16.63
2022-11-05T12:14:20.655Z,14.20
2022-11-05T12:17:17.859Z,18.70
2022-11-05T12:20:23.793Z,14.70
2022-11-05T12:22:56.550Z,13.03
2022-11-05T12:25:42.225Z,16.57
2022-11-05T12:28:29.308Z,15.63
2022-11-05T12:31:09.579Z,19.53
2022-11-05T12:33:59.305Z,18.27
2022-11-05T12:36:30.418Z,16.50
2022-11-05T12:39:05.849Z,13.10
2022-11-05T12:41:51.386Z,15.03
2022-11-05T12:45:12.401Z,15.30
2022-11-05T12:47:48.435Z,18.87
2022-11-05T12:50:51.804Z,23.60
2022-11-05T12:53:40.456Z,12.73
2022-11-05T12:56:18.839Z,12.00
2022-11-05T12:58:59.544Z,19.07
2022-11-05T13:01:35.918Z,17.80
2022-11-05T13:04:13.531Z,24.57
2022-11-05T13:06:45.072Z,17.90
2022-11-05T13:09:33.833Z,18.17
2022-11-05T13:12:07.524Z,19.97
2022-11-05T13:14:48.853Z,16.13
2022-11-05T13:17:28.214Z,15.13
2022-11-05T13:20:22.669Z,23.13
2022-11-05T13:23:00.909Z,14.27
2022-11-05T13:25:30.105Z,13.70
2022-11-05T13:28:06.764Z,13.47
2022-11-05T13:30:38.274Z,16.43
2022-11-05T13:33:13.977Z,19.43
2022-11-05T13:36:12.906Z,17.30
2022-11-05T13:39:00.703Z,12.77
2022-11-05T13:41:30.659Z,25.33
2022-11-05T13:44:20.109Z,21.17
2022-11-05T13:46:57.413Z,16.90
2022-11-05T13:49:24.238Z,22.30
2022-11-05T13:51:58.014Z,25.07
2022-11-05T13:54:38.490Z,18.57
2022-11-05T13:57:08.442Z,21.17
2022-11-05T13:59:38.307Z,17.27
2022-11-05T14:02:26.375Z,21.33
2022-11-05T14:05:01.011Z,20.83
2022-11-05T14:07:35.918Z,23.63
2022-11-05T14:10:35.879Z,15.80
2022-11-05T14:13:18.033Z,18.73
2022-11-05T14:16:09.040Z,18.83
2022-11-05T14:18:53.440Z,20.50
2022-11-05T14:21:26.640Z,15.77
2022-11-05T14:23:56.198Z,17.90
2022-11-05T14:26:28.914Z,15.70
2022-11-05T14:28:58.791Z,23.43
2022-11-05T14:31:47.357Z,18.47
2022-11-05T14:34:15.770Z,12.97
2022-11-05T14:36:44.909Z,19.47
2022-11-05T14:39:32.378Z,17.37
2022-11-05T14:42:28.154Z,20.70
2022-11-05T14:45:13.180Z,22.43
2022-11-05T14:47:55.033Z,24.37
2022-11-05T14:50:32.055Z,17.37
2022-11-05T14:53:10.453Z,23.10
2022-11-05T14:55:42.018Z,15.20
2022-11-05T14:58:28.301Z,21.37
2022-11-05T15:00:56.168Z,18.17
2022-11-05T15:03:46.302Z,15.43
2022-11-05T15:06:36.984Z,11.77
2022-11-05T15:09:08.569Z,16.90
2022-11-05T15:11:38.192Z,17.83
2022-11-05T15:14:21.210Z,18.30
2022-11-05T15:16:59.672Z,20.53
2022-11-05T15:19:33.947Z,18.30
2022-11-05T15:22:06.994Z,15.77
2022-11-05T15:24:35.136Z,13.67
2022-11-05T15:27:11.754Z,17.27
2022-11-05T15:29:40.052Z,17.03
2022-11-05T15:32:16.630Z,20.00
2022-11-05T15:34:51.949Z,15.83
2022-11-05T15:37:22.949Z,19.23
2022-11-05T15:39:52.096Z,19.47
2022-11-05T15:42:23.922Z,25.97
2022-11-05T15:44:56.444Z,16.10
2022-11-05T15:47:31.470Z,20.83
2022-11-05T15:49:59.806Z,26.70
2022-11-05T15:52:42.179Z,21.10
2022-11-05T15:55:12.160Z,21.40
2022-11-05T15:57:50.701Z,26.83
2022-11-05T16:00:25.081Z,22.97
2022-11-05T16:02:57.214Z,21.33
2022-11-05T16:05:28.122Z,21.60
2022-11-05T16:07:58.498Z,19.67
2022-11-05T16:10:33.692Z,15.33
2022-11-05T16:13:37.820Z,22.60
2022-11-05T16:16:13.985Z,17.47
2022-11-05T16:18:42.169Z,13.00
2022-11-05T16:21:12.116Z,20.13
2022-11-05T16:23:49.309Z,16.77
2022-11-05T16:27:00.682Z,18.03
2022-11-05T16:29:20.933Z,18.43
2022-11-05T16:31:56.481Z,21.23
2022-11-05T16:34:38.351Z,21.87
2022-11-05T16:37:07.359Z,14.87
2022-11-05T16:39:34.512Z,16.50
2022-11-05T16:42:01.658Z,19.47
2022-11-05T16:44:28.616Z,20.50
2022-11-05T16:46:55.950Z,17.97
2022-11-05T16:49:22.847Z,20.67
2022-11-05T16:51:50.022Z,15.07
2022-11-05T16:54:16.868Z,17.53
2022-11-05T16:56:45.236Z,18.20
2022-11-05T16:59:13.209Z,19.77
2022-11-05T17:01:42.506Z,19.23
2022-11-05T17:04:13.131Z,15.40
2022-11-05T17:06:40.327Z,13.97
2022-11-05T17:09:07.235Z,15.30
2022-11-05T17:11:34.368Z,16.23
2022-11-05T17:14:01.228Z,13.97
2022-11-05T17:16:28.466Z,21.60
2022-11-05T17:18:55.415Z,17.40
2022-11-05T17:21:22.563Z,18.53
2022-11-05T17:23:49.407Z,21.13
2022-11-05T17:26:16.603Z,18.70
2022-11-05T17:28:43.535Z,14.20
2022-11-05T17:31:13.026Z,12.73
2022-11-05T17:33:40.041Z,17.23
2022-11-05T17:36:09.998Z,15.83
2022-11-05T17:38:37.477Z,25.83
2022-11-05T17:41:20.199Z,17.87
2022-11-05T17:43:48.016Z,28.30
2022-11-05T17:46:16.865Z,22.00
2022-11-05T17:48:44.799Z,21.23
2022-11-05T17:51:15.072Z,17.47
2022-11-05T17:53:44.454Z,24.07
2022-11-05T17:56:13.455Z,30.80
2022-11-05T17:58:40.914Z,27.10
2022-11-05T18:01:09.986Z,22.53
2022-11-05T18:03:36.948Z,22.60
2022-11-05T18:06:05.675Z,32.87
2022-11-05T18:08:33.024Z,19.80
2022-11-05T18:11:00.258Z,21.63
2022-11-05T18:13:27.095Z,31.47
2022-11-05T18:15:54.712Z,24.40
2022-11-05T18:18:22.111Z,31.97
2022-11-05T18:20:49.284Z,20.77
2022-11-05T18:23:16.155Z,26.03
2022-11-05T18:25:43.297Z,28.00
2022-11-05T18:28:10.543Z,29.67
2022-11-05T18:30:39.203Z,26.50
2022-11-05T18:33:06.712Z,21.67
2022-11-05T18:35:34.467Z,29.90
2022-11-05T18:38:01.456Z,24.67
2022-11-05T18:40:29.026Z,25.27
2022-11-05T18:42:55.976Z,27.17
2022-11-05T18:45:28.420Z,29.90
2022-11-05T18:47:56.607Z,22.63
2022-11-05T18:50:23.798Z,22.33
2022-11-05T18:52:50.769Z,19.80
2022-11-05T18:55:18.445Z,23.47
2022-11-05T18:57:45.310Z,18.90
2022-11-05T19:00:12.999Z,17.07
2022-11-05T19:02:40.188Z,23.03
2022-11-05T19:05:27.872Z,17.97
2022-11-05T19:07:54.832Z,18.10
2022-11-05T19:10:21.993Z,25.87
2022-11-05T19:12:48.942Z,21.27
2022-11-05T19:15:16.297Z,19.67
2022-11-05T19:17:43.341Z,23.93
2022-11-05T19:20:11.492Z,20.43
2022-11-05T19:22:38.426Z,21.33
2022-11-05T19:25:06.291Z,20.33
2022-11-05T19:27:35.801Z,18.10
2022-11-05T19:30:04.133Z,31.90
2022-11-05T19:32:30.982Z,61.63
2022-11-05T19:34:58.125Z,36.03
2022-11-05T19:37:24.991Z,25.90
2022-11-05T19:39:52.133Z,26.10
2022-11-05T19:42:18.981Z,36.17
2022-11-05T19:44:46.135Z,22.30
2022-11-05T19:47:13.008Z,28.57
2022-11-05T19:49:40.203Z,33.10
2022-11-05T19:52:07.254Z,23.70
2022-11-05T19:54:36.037Z,35.20
2022-11-05T19:57:03.286Z,30.90
2022-11-05T19:59:30.439Z,23.67
2022-11-05T20:01:57.624Z,22.67
2022-11-05T20:04:25.053Z,28.37
2022-11-05T20:06:51.965Z,28.30
2022-11-05T20:09:22.074Z,24.40
2022-11-05T20:11:53.242Z,22.10
2022-11-05T20:14:20.920Z,22.83
2022-11-05T20:16:48.384Z,24.37
2022-11-05T20:19:20.976Z,22.07
2022-11-05T20:21:48.340Z,23.83
2022-11-05T20:24:23.567Z,23.53
2022-11-05T20:26:54.830Z,30.30
2022-11-05T20:29:23.422Z,24.23
2022-11-05T20:31:52.584Z,30.90
2022-11-05T20:34:19.831Z,26.13
2022-11-05T20:36:46.843Z,25.43
2022-11-05T20:39:14.077Z,27.70
2022-11-05T20:41:41.446Z,20.23
2022-11-05T20:44:08.700Z,27.77
2022-11-05T20:46:35.677Z,23.47
2022-11-05T20:49:02.883Z,23.27
2022-11-05T20:51:29.781Z,26.67
2022-11-05T20:53:58.338Z,33.90
2022-11-05T20:56:29.480Z,23.43
2022-11-05T20:59:00.943Z,29.80
2022-11-05T21:01:30.162Z,27.37
2022-11-05T21:03:58.032Z,25.40
2022-11-05T21:06:25.151Z,23.50
2022-11-05T21:08:52.767Z,25.37
2022-11-05T21:11:20.400Z,29.10
2022-11-05T21:13:48.098Z,31.20
2022-11-05T21:16:18.755Z,34.57
2022-11-05T21:18:46.478Z,27.57
2022-11-05T21:21:20.635Z,26.10
2022-11-05T21:23:48.524Z,27.93
2022-11-05T21:26:17.772Z,25.97
2022-11-05T21:28:45.148Z,27.83
2022-11-05T21:31:12.195Z,21.50
2022-11-05T21:33:39.479Z,23.73
2022-11-05T21:36:12.267Z,27.93
2022-11-05T21:38:40.642Z,26.93
2022-11-05T21:41:08.654Z,27.07
2022-11-05T21:43:37.739Z,26.43
2022-11-05T21:46:05.402Z,39.07
2022-11-05T21:48:32.871Z,37.23
2022-11-05T21:51:18.421Z,33.90
2022-11-05T21:54:04.267Z,43.07
2022-11-05T21:56:50.981Z,40.13
2022-11-05T21:59:39.695Z,47.40
2022-11-05T22:02:08.231Z,44.00
2022-11-05T22:04:37.912Z,34.00
2022-11-05T22:07:06.304Z,31.03
2022-11-05T22:09:34.027Z,37.90
2022-11-05T22:12:01.826Z,67.97
2022-11-05T22:14:29.824Z,39.13
2022-11-05T22:16:58.005Z,26.47
2022-11-05T22:19:25.813Z,23.93
2022-11-05T22:21:53.006Z,23.77
2022-11-05T22:24:20.424Z,26.87
2022-11-05T22:26:47.422Z,38.47
2022-11-05T22:29:15.626Z,30.60
2022-11-05T22:31:43.215Z,35.37
2022-11-05T22:34:11.633Z,35.27
2022-11-05T22:36:39.075Z,25.13
2022-11-05T22:39:06.614Z,19.93
2022-11-05T22:41:34.272Z,20.63
2022-11-05T22:44:03.349Z,21.73
2022-11-05T22:46:30.644Z,30.93
2022-11-05T22:48:58.339Z,33.87
2022-11-05T22:51:28.795Z,28.20
2022-11-05T22:53:56.803Z,35.00
2022-11-05T22:56:25.822Z,25.33
2022-11-05T22:58:53.483Z,37.50
2022-11-05T23:01:22.189Z,30.10
2022-11-05T23:03:51.988Z,27.93
2022-11-05T23:06:40.279Z,28.13
2022-11-05T23:09:32.010Z,23.60
2022-11-05T23:11:59.550Z,30.17
2022-11-05T23:14:27.310Z,57.40
2022-11-05T23:17:13.004Z,46.97
2022-11-05T23:19:58.906Z,37.67
2022-11-05T23:22:47.706Z,64.83
2022-11-05T23:25:18.868Z,41.77
2022-11-05T23:27:48.687Z,49.07
2022-11-05T23:30:24.719Z,46.07
2022-11-05T23:32:52.658Z,33.80
2022-11-05T23:35:39.986Z,31.37
2022-11-05T23:38:25.385Z,29.97
2022-11-05T23:41:11.204Z,28.67
2022-11-05T23:43:56.510Z,28.23
2022-11-05T23:46:42.126Z,49.90
2022-11-05T23:49:09.303Z,27.13
2022-11-05T23:51:36.419Z,32.50
2022-11-05T23:54:03.380Z,35.20
2022-11-05T23:56:31.201Z,32.97
2022-11-05T23:58:58.068Z,40.53
